Englewood Cliffs, New Jersey
Current Conditions -  °F | °C
As of 4:51 PM on Wednesday 17 Dec 2014 (Local Time) from KTEB Reporting Station
Overcast Overcast  
Wind Chill: 43°   Ceiling: 6000
Heat Index: 48°   Visibility: 10mi
Dew Point: 37°   Wind: 10mph
Humidity: 66%   Direction: 300°WNW
Pressure: 29.85"   Gusts: NA
Location:  40.88°N, 73.95°W
Report Text: KTEB 172151Z 30009KT 10SM FEW045 OVC060 09/03 A2985 RMK AO2 RAE12 SLP106 P0000 T00890028
Loading
Personal Weather Stations






























Interactive Weather Map New forecast layout! Learn more

10-Day Weather Forecast

Advertisements
Track Severe Weather on mobile